Time;durP1;ratioP1;P1;durP2;ratioP2;P2;SDS_P1;SDS_P2;PMS_P1;PMS_P2;Temp;Humidity;BMP_temperature;BMP_pressure;BME280_temperature;BME280_humidity;BME280_pressure;Samples;Min_cycle;Max_cycle;Signal;HPM_P1;HPM_P2
2023/02/21 02:14:44;;;;;;;;;69.25;54.25;;;;;9.66;51.78;101717.94;6278127;22;45238;-72
2023/02/21 02:17:27;;;;;;;;;67.25;52.25;;;;;9.64;51.72;101712.69;6277608;22;45274;-72
2023/02/21 02:20:23;;;;;;;;;66.25;49.00;;;;;9.63;51.92;101715.31;6278449;22;45478;-72
2023/02/21 02:23:26;;;;;;;;;65.75;49.50;;;;;9.60;52.02;101711.81;6277784;22;45387;-72
2023/02/21 02:25:51;;;;;;;;;71.25;56.75;;;;;9.57;51.93;101716.16;6277887;22;45307;-72
2023/02/21 02:28:26;;;;;;;;;70.25;55.25;;;;;9.51;51.99;101701.25;6277641;22;45301;-72
2023/02/21 02:31:26;;;;;;;;;67.00;52.75;;;;;9.54;52.17;101701.25;6278910;22;45454;-72
2023/02/21 02:34:29;;;;;;;;;71.50;56.00;;;;;9.52;52.03;101699.50;6279507;22;45205;-72
2023/02/21 02:37:12;;;;;;;;;70.00;55.25;;;;;9.50;52.19;101696.03;6278840;22;45324;-72
2023/02/21 02:40:05;;;;;;;;;64.75;49.75;;;;;9.46;51.74;101687.25;6279564;22;45292;-72
2023/02/21 02:42:46;;;;;;;;;69.75;54.25;;;;;9.46;52.13;101689.88;6279365;22;45305;-72
2023/02/21 02:45:42;;;;;;;;;72.50;55.00;;;;;9.45;52.14;101677.63;6251825;22;45235;-72
2023/02/21 02:48:33;;;;;;;;;65.00;51.25;;;;;9.41;52.17;101674.09;6251247;22;46282;-73
2023/02/21 02:51:01;;;;;;;;;65.25;49.75;;;;;9.40;52.20;101672.34;6279451;22;45532;-72
2023/02/21 02:53:28;;;;;;;;;69.50;53.50;;;;;9.38;52.17;101666.22;6279275;22;45380;-72
2023/02/21 02:55:59;;;;;;;;;67.50;54.00;;;;;9.39;52.22;101674.94;6279246;22;45447;-72
2023/02/21 02:58:29;;;;;;;;;70.25;55.50;;;;;9.36;52.01;101674.94;6278991;22;45308;-72
2023/02/21 03:01:10;;;;;;;;;71.00;53.75;;;;;9.31;52.10;101664.41;6278826;22;45169;-72
2023/02/21 03:03:53;;;;;;;;;70.75;55.00;;;;;9.32;52.10;101668.81;6279890;22;45163;-72
2023/02/21 03:06:32;;;;;;;;;72.25;56.25;;;;;9.33;52.21;101672.28;6279296;22;45527;-72
2023/02/21 03:09:07;;;;;;;;;68.25;54.50;;;;;9.30;51.84;101660.03;6276881;22;47063;-72
2023/02/21 03:11:36;;;;;;;;;70.50;54.00;;;;;9.27;52.37;101650.41;6279299;22;45232;-72
2023/02/21 03:14:01;;;;;;;;;69.50;54.50;;;;;9.26;52.05;101650.41;6277873;22;45274;-73
2023/02/21 03:16:49;;;;;;;;;72.75;56.75;;;;;9.23;52.36;101651.28;6279342;22;45323;-72
2023/02/21 03:19:27;;;;;;;;;73.33;56.00;;;;;9.21;52.03;101649.50;6301064;22;47348;-73
2023/02/21 03:22:14;;;;;;;;;73.33;56.33;;;;;9.18;52.26;101649.47;6279105;22;45081;-72
2023/02/21 03:24:43;;;;;;;;;76.00;58.25;;;;;9.15;52.22;101642.47;6277100;22;45312;-73
2023/02/21 03:27:11;;;;;;;;;75.33;59.67;;;;;9.10;52.22;101642.41;6278559;22;45430;-73
2023/02/21 03:29:38;;;;;;;;;71.33;57.00;;;;;9.12;52.21;101647.69;6277095;22;47972;-72
2023/02/21 03:34:39;;;;;;;;;70.75;57.00;;;;;9.08;52.42;101653.78;6279044;22;45163;-73
2023/02/21 03:37:07;;;;;;;;;72.50;56.00;;;;;9.03;52.31;101661.63;6278849;22;45215;-73
2023/02/21 03:39:32;;;;;;;;;69.50;53.25;;;;;9.01;52.42;101649.38;6278755;22;45300;-73
2023/02/21 03:41:57;;;;;;;;;69.00;54.75;;;;;8.97;52.27;101635.38;6278562;22;45432;-73
2023/02/21 03:44:23;;;;;;;;;63.75;47.50;;;;;8.98;52.35;101647.63;6277198;22;45286;-73
2023/02/21 03:46:48;;;;;;;;;76.25;57.25;;;;;8.97;52.29;101639.72;6278849;22;45181;-73
2023/02/21 03:49:14;;;;;;;;;69.50;54.75;;;;;8.93;52.41;101633.56;6279311;22;45483;-71
2023/02/21 03:51:39;;;;;;;;;69.75;52.50;;;;;8.89;52.19;101635.31;6278628;22;45246;-72
2023/02/21 03:54:04;;;;;;;;;69.00;54.75;;;;;8.88;52.14;101630.94;6279394;22;45320;-72
2023/02/21 03:56:30;;;;;;;;;72.75;56.25;;;;;8.88;52.27;101627.41;6278876;22;45405;-72
2023/02/21 03:58:55;;;;;;;;;71.75;53.75;;;;;8.87;52.26;101625.69;6279059;22;46608;-72
2023/02/21 04:01:20;;;;;;;;;67.00;52.50;;;;;8.86;52.31;101627.41;6279303;22;45166;-72
2023/02/21 04:03:46;;;;;;;;;64.50;52.00;;;;;8.86;52.59;101621.31;6279545;22;45211;-72
2023/02/21 04:06:11;;;;;;;;;64.25;48.75;;;;;8.82;52.23;101616.88;6279120;22;45487;-71
2023/02/21 04:08:36;;;;;;;;;66.00;52.00;;;;;8.79;52.47;101612.50;6278568;22;45266;-71
2023/02/21 04:11:02;;;;;;;;;66.50;51.00;;;;;8.75;52.46;101610.72;6279023;22;45187;-72
2023/02/21 04:13:27;;;;;;;;;62.75;49.25;;;;;8.77;52.14;101614.25;6279495;22;45190;-72
2023/02/21 04:15:53;;;;;;;;;66.00;51.25;;;;;8.75;52.35;101616.88;6277182;22;45495;-71
2023/02/21 04:18:18;;;;;;;;;61.75;48.50;;;;;8.72;52.19;101611.59;6278630;22;45141;-71
2023/02/21 04:20:45;;;;;;;;;65.00;51.50;;;;;8.71;52.28;101617.69;6251372;22;45467;-71
2023/02/21 04:23:11;;;;;;;;;61.50;48.25;;;;;8.71;52.25;101625.56;6278304;22;45393;-72
2023/02/21 04:25:36;;;;;;;;;63.50;50.50;;;;;8.65;52.22;101614.16;6278971;22;45228;-72
2023/02/21 04:28:01;;;;;;;;;59.50;49.00;;;;;8.69;52.48;101622.06;6278347;22;45277;-72
2023/02/21 04:30:27;;;;;;;;;61.00;47.25;;;;;8.62;52.62;101615.88;6251373;22;45276;-72
2023/02/21 04:32:52;;;;;;;;;59.25;47.75;;;;;8.63;52.71;101627.25;6279223;22;45178;-72
2023/02/21 04:35:17;;;;;;;;;63.50;49.25;;;;;8.62;52.13;101618.50;6251364;22;45216;-72
2023/02/21 04:37:43;;;;;;;;;61.00;48.25;;;;;8.57;52.45;101609.72;6278287;22;45712;-71
2023/02/21 04:40:09;;;;;;;;;65.75;51.50;;;;;8.54;52.27;101604.47;6251229;22;45211;-71
2023/02/21 04:42:35;;;;;;;;;62.75;47.25;;;;;8.56;52.22;101613.22;6278792;22;45249;-71
2023/02/21 04:45:00;;;;;;;;;64.25;50.75;;;;;8.54;52.41;101608.81;6251100;22;45221;-72
2023/02/21 04:47:25;;;;;;;;;53.75;43.25;;;;;8.50;52.66;101610.53;6250598;22;47170;-72
2023/02/21 04:49:51;;;;;;;;;61.25;49.00;;;;;8.48;52.62;101614.00;6251239;22;45293;-72
2023/02/21 04:52:20;;;;;;;;;59.00;47.00;;;;;8.51;52.43;101621.91;6278797;22;45257;-72
2023/02/21 04:54:47;;;;;;;;;58.25;49.00;;;;;8.50;52.41;101625.38;6278317;22;45436;-71
2023/02/21 04:57:13;;;;;;;;;60.50;47.00;;;;;8.50;52.41;101622.78;6278062;22;45405;-72
2023/02/21 04:59:39;;;;;;;;;61.00;49.50;;;;;8.40;52.74;101611.28;6250813;22;45249;-72
2023/02/21 05:02:05;;;;;;;;;63.25;49.00;;;;;8.41;52.51;101616.53;6278821;22;45212;-72
2023/02/21 05:04:30;;;;;;;;;50.25;36.25;;;;;8.39;52.52;101613.06;6279022;22;45263;-72
2023/02/21 05:06:58;;;;;;;;;64.50;49.75;;;;;8.44;52.47;101639.28;6250599;22;46936;-72
2023/02/21 05:09:23;;;;;;;;;61.50;47.75;;;;;8.42;52.50;101630.53;6251096;22;45277;-72
2023/02/21 05:11:49;;;;;;;;;61.75;48.00;;;;;8.40;52.60;101629.63;6278780;22;45241;-72
2023/02/21 05:14:16;;;;;;;;;58.75;48.50;;;;;8.37;52.56;101627.00;6251080;22;45331;-72
2023/02/21 05:16:42;;;;;;;;;53.00;44.00;;;;;8.29;52.45;101619.06;6250700;22;48523;-72
2023/02/21 05:19:07;;;;;;;;;57.50;46.75;;;;;8.35;52.69;101628.72;6277580;22;45213;-72
2023/02/21 05:21:37;;;;;;;;;60.00;46.75;;;;;8.35;52.55;101624.38;6278421;22;45516;-72
2023/02/21 05:24:06;;;;;;;;;58.50;46.50;;;;;8.34;52.55;101620.00;6278627;22;45478;-72
2023/02/21 05:26:35;;;;;;;;;60.25;47.25;;;;;8.33;52.55;101620.84;6277733;22;46130;-72
2023/02/21 05:29:01;;;;;;;;;65.25;51.50;;;;;8.31;52.65;101619.94;6276323;22;45971;-72
2023/02/21 05:31:27;;;;;;;;;62.00;50.25;;;;;8.31;52.76;101619.94;6278900;22;45201;-72
2023/02/21 05:33:52;;;;;;;;;63.75;49.50;;;;;8.28;52.55;101614.69;6278732;22;45274;-73
2023/02/21 05:36:18;;;;;;;;;63.00;50.00;;;;;8.27;52.77;101613.78;6278476;22;45141;-73
2023/02/21 05:38:48;;;;;;;;;61.75;50.50;;;;;8.28;52.45;101601.59;6277896;22;45106;-73
2023/02/21 05:41:15;;;;;;;;;62.50;50.50;;;;;8.22;52.87;101606.78;6278060;22;45329;-73
2023/02/21 05:43:43;;;;;;;;;62.75;50.75;;;;;8.21;52.62;101605.88;6278557;22;45294;-73
2023/02/21 05:46:19;;;;;;;;;65.75;51.75;;;;;8.21;52.78;101602.41;6277983;22;45967;-73
2023/02/21 05:48:44;;;;;;;;;68.00;54.50;;;;;8.22;52.67;101602.41;6250428;22;45298;-73
2023/02/21 05:51:10;;;;;;;;;51.50;40.50;;;;;8.16;52.47;101596.25;6278719;22;45145;-73
2023/02/21 05:53:35;;;;;;;;;64.75;51.00;;;;;8.16;52.59;101596.25;6277978;22;45153;-73
2023/02/21 05:56:00;;;;;;;;;64.00;51.00;;;;;8.11;52.78;101589.22;6278304;22;45399;-73
2023/02/21 05:58:26;;;;;;;;;60.00;46.25;;;;;8.13;52.75;101595.34;6277983;22;45253;-73
2023/02/21 06:00:51;;;;;;;;;68.00;53.75;;;;;8.08;52.74;101583.94;6278533;22;45391;-73
2023/02/21 06:03:16;;;;;;;;;69.75;53.75;;;;;8.08;52.71;101588.31;6278335;22;45263;-73
2023/02/21 06:05:42;;;;;;;;;69.50;55.00;;;;;8.08;52.81;101583.09;6251383;22;45233;-73
2023/02/21 06:08:07;;;;;;;;;68.50;55.00;;;;;8.07;52.88;101586.56;6278689;22;45233;-73
2023/02/21 06:10:32;;;;;;;;;67.00;51.75;;;;;8.05;52.67;101580.41;6279605;22;45168;-73
2023/02/21 06:12:58;;;;;;;;;69.25;54.00;;;;;8.00;52.80;101583.00;6251573;22;45272;-73
2023/02/21 06:15:23;;;;;;;;;65.50;51.00;;;;;7.98;52.83;101579.50;6279467;22;45363;-73
2023/02/21 06:17:48;;;;;;;;;69.00;53.75;;;;;8.00;52.71;101580.41;6279156;22;45249;-73
2023/02/21 06:20:15;;;;;;;;;65.25;51.25;;;;;7.98;52.67;101582.97;6279810;22;45444;-74
2023/02/21 06:22:42;;;;;;;;;62.50;49.25;;;;;7.97;52.88;101582.97;6279436;22;45256;-74
2023/02/21 06:25:08;;;;;;;;;67.50;54.00;;;;;7.93;52.98;101578.56;6279137;22;45935;-74
2023/02/21 06:27:34;;;;;;;;;64.25;49.25;;;;;7.93;52.73;101579.44;6278978;22;45177;-74
2023/02/21 06:29:59;;;;;;;;;65.75;51.00;;;;;7.91;52.77;101567.19;6251984;22;45396;-74
2023/02/21 06:32:26;;;;;;;;;62.00;49.75;;;;;7.87;52.85;101550.59;6279773;22;45576;-74
2023/02/21 06:34:51;;;;;;;;;69.50;52.00;;;;;7.86;52.96;101547.97;6279303;22;45368;-73
2023/02/21 06:37:17;;;;;;;;;69.75;53.75;;;;;7.86;53.10;101545.34;6278860;22;45374;-73
2023/02/21 06:39:43;;;;;;;;;63.75;49.50;;;;;7.84;52.89;101545.34;6279599;22;45273;-73
2023/02/21 06:42:13;;;;;;;;;66.50;53.00;;;;;7.85;52.70;101554.94;6279283;22;45187;-73
2023/02/21 06:44:38;;;;;;;;;69.50;53.50;;;;;7.84;52.89;101550.56;6278953;22;45631;-73
2023/02/21 06:47:03;;;;;;;;;68.50;54.75;;;;;7.83;52.80;101545.31;6277096;22;45141;-73
2023/02/21 06:49:29;;;;;;;;;65.75;53.00;;;;;7.81;53.00;101546.19;6279496;22;45611;-74
2023/02/21 06:51:54;;;;;;;;;68.25;55.00;;;;;7.78;53.07;101547.88;6278626;22;45133;-75
2023/02/21 06:54:20;;;;;;;;;73.50;57.50;;;;;7.81;52.92;101547.91;6279287;22;45157;-68
2023/02/21 06:56:46;;;;;;;;;63.50;51.25;;;;;7.77;53.02;101541.78;6278357;22;45192;-73
2023/02/21 06:59:11;;;;;;;;;70.50;54.50;;;;;7.77;53.04;101541.78;6279472;22;45286;-70
2023/02/21 07:01:37;;;;;;;;;69.25;54.75;;;;;7.75;53.08;101540.88;6279128;22;45372;-70
2023/02/21 07:04:02;;;;;;;;;67.50;52.25;;;;;7.76;52.78;101541.75;6278752;22;46156;-72
2023/02/21 07:06:27;;;;;;;;;65.00;50.50;;;;;7.76;52.98;101542.66;6278790;22;45343;-72
2023/02/21 07:08:53;;;;;;;;;69.00;53.75;;;;;7.74;53.10;101533.88;6278606;22;45233;-72
2023/02/21 07:11:18;;;;;;;;;67.75;54.00;;;;;7.76;53.17;101545.25;6278813;22;45182;-71
2023/02/21 07:13:51;;;;;;;;;71.00;52.00;;;;;7.76;53.22;101542.66;6251484;22;47860;-74
2023/02/21 07:16:17;;;;;;;;;64.75;52.75;;;;;7.72;53.00;101539.97;6278591;22;45390;-74
2023/02/21 07:18:44;;;;;;;;;66.00;51.25;;;;;7.70;52.92;101539.97;6278194;22;45391;-73
2023/02/21 07:21:10;;;;;;;;;69.75;54.25;;;;;7.70;53.06;101545.19;6276883;22;45201;-66
2023/02/21 07:23:35;;;;;;;;;69.25;53.75;;;;;7.71;52.94;101548.69;6278686;22;45288;-62
2023/02/21 07:26:00;;;;;;;;;67.50;54.50;;;;;7.69;53.04;101540.81;6279323;22;45192;-62
2023/02/21 07:28:26;;;;;;;;;65.50;52.00;;;;;7.69;53.13;101545.19;6279066;22;45417;-62
2023/02/21 07:30:51;;;;;;;;;64.75;51.75;;;;;7.67;53.38;101546.91;6251873;22;45410;-62
2023/02/21 07:33:16;;;;;;;;;64.50;51.75;;;;;7.65;53.32;101547.75;6251227;22;47214;-62
2023/02/21 07:35:42;;;;;;;;;67.00;52.25;;;;;7.65;53.01;101545.13;6279096;22;45151;-62
2023/02/21 07:38:07;;;;;;;;;63.75;50.25;;;;;7.63;52.99;101541.66;6278323;22;45467;-62
2023/02/21 07:40:32;;;;;;;;;61.50;50.00;;;;;7.65;53.24;101542.53;6278465;22;45390;-62
2023/02/21 07:42:58;;;;;;;;;66.75;50.50;;;;;7.65;53.09;101537.28;6278861;22;45939;-62
2023/02/21 07:45:23;;;;;;;;;64.00;51.75;;;;;7.63;53.06;101533.78;6251123;22;45291;-62
2023/02/21 07:47:50;;;;;;;;;67.00;51.75;;;;;7.65;53.33;101536.41;6278710;22;45095;-62
2023/02/21 07:50:16;;;;;;;;;63.25;50.00;;;;;7.65;52.99;101533.81;6279019;22;45383;-62
2023/02/21 07:52:42;;;;;;;;;64.25;52.00;;;;;7.60;53.15;101525.91;6278853;22;46079;-62
2023/02/21 07:55:07;;;;;;;;;64.75;51.00;;;;;7.68;53.35;101530.34;6278832;22;45260;-62
2023/02/21 07:57:33;;;;;;;;;55.25;46.00;;;;;7.69;53.37;101538.19;6278052;22;45288;-62
2023/02/21 07:59:58;;;;;;;;;63.75;50.00;;;;;7.69;53.13;101532.09;6278953;22;45231;-62
2023/02/21 08:02:23;;;;;;;;;66.00;51.50;;;;;7.71;53.41;101523.41;6279283;22;45464;-62
2023/02/21 08:04:50;;;;;;;;;63.25;50.25;;;;;7.75;53.44;101530.41;6278990;22;45224;-62
2023/02/21 08:07:15;;;;;;;;;69.00;55.25;;;;;7.77;53.38;101536.56;6276524;22;45226;-61
2023/02/21 08:09:41;;;;;;;;;64.50;50.25;;;;;7.78;53.72;101529.56;6279163;22;45510;-62
2023/02/21 08:12:06;;;;;;;;;71.25;53.50;;;;;7.80;53.45;101518.25;6278040;22;46009;-64
2023/02/21 08:14:31;;;;;;;;;67.50;53.00;;;;;7.80;53.54;101520.88;6279131;22;45165;-61
2023/02/21 08:16:57;;;;;;;;;68.75;52.50;;;;;7.87;53.52;101518.31;6250875;22;45213;-62
2023/02/21 08:19:22;;;;;;;;;72.00;56.75;;;;;7.87;53.58;101515.69;6250870;22;45182;-62
2023/02/21 08:21:49;;;;;;;;;67.00;53.00;;;;;7.92;53.62;101514.00;6250717;22;47288;-61
2023/02/21 08:24:15;;;;;;;;;69.25;53.50;;;;;7.97;53.57;101517.53;6251116;22;46159;-61
2023/02/21 08:26:44;;;;;;;;;68.25;53.50;;;;;8.00;53.73;101509.72;6278419;22;45306;-62
2023/02/21 08:29:13;;;;;;;;;72.25;57.25;;;;;8.04;53.92;101510.63;6250977;22;45418;-63
2023/02/21 08:31:40;;;;;;;;;66.25;51.50;;;;;8.09;53.61;101516.78;6278508;22;45167;-62
2023/02/21 08:34:07;;;;;;;;;70.50;54.00;;;;;8.13;53.78;101514.19;6278969;22;45420;-62
2023/02/21 08:36:35;;;;;;;;;69.50;55.50;;;;;8.19;53.70;101508.13;6278767;22;45248;-62
2023/02/21 08:39:01;;;;;;;;;69.75;57.00;;;;;8.24;53.99;101514.28;6278725;22;45248;-62
2023/02/21 08:41:47;;;;;;;;;67.50;54.00;;;;;8.32;53.78;101510.84;6278792;22;45264;-61
2023/02/21 08:44:15;;;;;;;;;67.75;52.25;;;;;8.37;54.11;101512.63;6278592;22;45198;-61
2023/02/21 08:46:40;;;;;;;;;69.50;53.50;;;;;8.42;54.24;101505.66;6278884;22;45103;-61
2023/02/21 08:49:07;;;;;;;;;70.25;53.50;;;;;8.48;54.09;101499.66;6278627;22;45301;-61
2023/02/21 08:51:33;;;;;;;;;72.75;55.50;;;;;8.57;53.99;101506.69;6278548;22;45359;-61
2023/02/21 08:53:59;;;;;;;;;67.25;51.75;;;;;8.65;53.79;101501.47;6278741;22;45206;-61
2023/02/21 08:56:25;;;;;;;;;66.50;51.25;;;;;8.72;54.31;101503.28;6278651;22;45236;-61
2023/02/21 08:58:53;;;;;;;;;67.00;53.00;;;;;8.78;54.29;101501.56;6250881;22;45425;-61
2023/02/21 09:01:18;;;;;;;;;67.50;52.75;;;;;8.88;54.50;101498.97;6250890;22;46760;-61
2023/02/21 09:03:44;;;;;;;;;66.00;53.75;;;;;8.94;54.38;101497.28;6278901;22;45118;-61
2023/02/21 09:06:09;;;;;;;;;72.50;56.25;;;;;9.05;54.43;101507.81;6250684;22;45122;-62
2023/02/21 09:08:38;;;;;;;;;67.25;53.50;;;;;9.14;54.46;101499.09;6278411;22;45161;-61
2023/02/21 09:11:04;;;;;;;;;68.00;52.75;;;;;9.25;54.43;101505.25;6276729;22;45391;-63
2023/02/21 09:13:31;;;;;;;;;69.25;51.75;;;;;9.34;54.76;101501.78;6278570;22;45233;-62
2023/02/21 09:15:57;;;;;;;;;67.25;53.00;;;;;9.46;54.75;101506.22;6278858;22;45225;-62
2023/02/21 09:18:23;;;;;;;;;64.00;50.75;;;;;9.57;54.68;101506.22;6278264;22;45866;-62
2023/02/21 09:20:50;;;;;;;;;68.25;52.25;;;;;9.68;54.72;101506.25;6250791;22;47179;-62
2023/02/21 09:23:20;;;;;;;;;62.00;49.50;;;;;9.79;54.86;101503.66;6278489;22;45370;-62
2023/02/21 09:25:48;;;;;;;;;65.75;48.75;;;;;9.95;54.88;101496.66;6278330;22;45189;-62
2023/02/21 09:28:15;;;;;;;;;66.00;51.50;;;;;10.08;55.23;101501.03;6278358;22;45162;-62
2023/02/21 09:30:40;;;;;;;;;56.25;45.50;;;;;10.24;55.07;101501.91;6278493;22;45358;-62
2023/02/21 09:33:06;;;;;;;;;65.00;49.25;;;;;10.37;55.16;101492.28;6250995;22;45229;-62
2023/02/21 09:35:31;;;;;;;;;59.50;46.50;;;;;10.57;55.09;101490.50;6278689;22;45212;-62
2023/02/21 09:37:58;;;;;;;;;60.25;47.75;;;;;10.73;55.11;101499.22;6277877;22;45530;-62
2023/02/21 09:40:40;;;;;;;;;60.75;48.75;;;;;10.95;55.35;101491.25;6277641;22;45206;-62
2023/02/21 09:43:25;;;;;;;;;64.25;48.75;;;;;11.12;55.39;101482.41;6278092;22;45293;-62
2023/02/21 09:45:55;;;;;;;;;60.25;47.25;;;;;11.28;55.63;101473.59;6278454;22;45297;-62
2023/02/21 09:48:22;;;;;;;;;61.50;48.50;;;;;11.57;55.45;101484.81;6277893;22;45263;-62
2023/02/21 09:50:55;;;;;;;;;55.75;44.75;;;;;11.79;55.34;101489.03;6278485;22;45141;-62
2023/02/21 09:53:27;;;;;;;;;57.00;46.75;;;;;11.99;55.48;101482.81;6278099;22;45358;-62
2023/02/21 09:55:59;;;;;;;;;57.50;45.75;;;;;12.20;55.83;101479.09;6278647;22;45286;-62
2023/02/21 09:58:24;;;;;;;;;56.50;45.75;;;;;12.41;55.59;101488.53;6277684;22;45321;-62
2023/02/21 10:00:49;;;;;;;;;57.50;46.00;;;;;12.61;55.77;101483.06;6278188;22;45604;-62
2023/02/21 10:03:41;;;;;;;;;55.75;45.25;;;;;12.85;55.76;101473.13;6250542;22;45185;-62
2023/02/21 10:06:31;;;;;;;;;53.25;41.00;;;;;13.14;55.82;101474.53;6278108;22;45236;-62
2023/02/21 10:09:04;;;;;;;;;57.25;44.00;;;;;13.38;55.57;101467.22;6276338;22;45247;-62
2023/02/21 10:12:09;;;;;;;;;55.00;44.00;;;;;13.68;55.89;101470.28;6277689;22;45232;-62
2023/02/21 10:14:43;;;;;;;;;50.75;42.00;;;;;13.94;55.53;101473.38;6250380;22;45222;-62
2023/02/21 10:17:20;;;;;;;;;53.50;42.75;;;;;14.23;55.60;101472.00;6277992;22;45217;-63
2023/02/21 10:19:51;;;;;;;;;54.75;43.75;;;;;14.49;56.09;101472.44;6278333;22;45163;-63
2023/02/21 10:22:24;;;;;;;;;56.50;44.00;;;;;14.74;55.73;101470.22;6277609;22;45160;-63
2023/02/21 10:24:50;;;;;;;;;52.75;42.25;;;;;14.98;56.06;101478.56;6277549;22;45272;-62
2023/02/21 10:27:20;;;;;;;;;51.50;41.50;;;;;15.14;55.68;101466.72;6277295;22;45257;-62
2023/02/21 10:29:59;;;;;;;;;51.25;40.50;;;;;15.37;55.91;101468.88;6277682;22;45376;-62
2023/02/21 10:32:25;;;;;;;;;49.50;38.50;;;;;15.54;55.64;101462.31;6278012;22;45319;-62
2023/02/21 10:34:53;;;;;;;;;52.25;40.00;;;;;15.71;55.48;101464.56;6277620;22;45198;-62
2023/02/21 10:37:40;;;;;;;;;48.00;39.25;;;;;15.93;55.62;101473.75;6277699;22;45256;-62
2023/02/21 10:40:29;;;;;;;;;44.50;39.75;;;;;16.13;55.36;101472.38;6278485;22;45309;-62
2023/02/21 10:43:16;;;;;;;;;52.50;41.75;;;;;16.31;55.37;101464.88;6277015;22;45316;-62
2023/02/21 10:45:56;;;;;;;;;46.00;38.75;;;;;16.45;55.28;101462.69;6278332;22;45316;-62
2023/02/21 10:48:25;;;;;;;;;44.75;36.75;;;;;16.60;55.28;101457.91;6277403;22;45300;-62
2023/02/21 10:50:56;;;;;;;;;51.75;39.25;;;;;16.75;55.26;101444.19;6277534;22;45501;-62
2023/02/21 10:53:37;;;;;;;;;48.75;37.00;;;;;16.90;55.12;101448.16;6278860;22;46068;-62
2023/02/21 10:56:37;;;;;;;;;45.50;39.00;;;;;17.08;54.98;101452.13;6278546;22;45185;-62
2023/02/21 10:59:05;;;;;;;;;36.25;33.25;;;;;17.17;54.77;101448.31;6228656;22;45234;-62
2023/02/21 11:01:57;;;;;;;;;45.25;36.25;;;;;17.31;54.70;101440.78;6279039;22;45507;-62
2023/02/21 11:04:27;;;;;;;;;48.25;37.00;;;;;17.38;54.59;101439.69;6274112;22;45173;-62
2023/02/21 11:07:00;;;;;;;;;44.25;35.50;;;;;17.49;54.61;101441.97;6250921;22;45752;-62
2023/02/21 11:09:32;;;;;;;;;42.25;35.00;;;;;17.59;54.47;101441.69;6278914;22;45374;-62
2023/02/21 11:12:18;;;;;;;;;49.50;38.00;;;;;17.63;53.98;101438.88;6279255;22;45261;-62
2023/02/21 11:15:04;;;;;;;;;44.00;37.75;;;;;17.76;54.27;101439.34;6279054;22;46112;-64
2023/02/21 11:17:31;;;;;;;;;42.50;34.50;;;;;17.81;54.21;101431.19;6278888;22;45181;-63
2023/02/21 11:20:19;;;;;;;;;38.25;32.75;;;;;17.90;53.97;101425.59;6279053;22;45195;-63
2023/02/21 11:22:47;;;;;;;;;47.75;35.50;;;;;17.96;53.91;101424.53;6278235;22;45189;-62
2023/02/21 11:25:24;;;;;;;;;35.75;33.25;;;;;18.04;53.86;101422.50;6279325;22;45359;-63
2023/02/21 11:28:05;;;;;;;;;36.00;33.50;;;;;18.11;53.45;101415.16;6278573;22;45328;-61
2023/02/21 11:30:34;;;;;;;;;43.50;37.00;;;;;18.15;53.64;101408.78;6279282;22;45428;-62
2023/02/21 11:33:01;;;;;;;;;43.00;34.00;;;;;18.18;53.56;101406.03;6279420;22;45269;-62
2023/02/21 11:35:58;;;;;;;;;40.25;35.00;;;;;18.23;53.21;101400.56;6251680;22;47281;-62
2023/02/21 11:38:36;;;;;;;;;47.25;36.25;;;;;18.26;53.27;101392.47;6241230;22;45456;-62
2023/02/21 11:41:14;;;;;;;;;43.25;35.25;;;;;18.26;53.51;101389.81;6251524;22;45317;-62
2023/02/21 11:43:48;;;;;;;;;49.25;37.75;;;;;18.29;53.65;101379.06;6278811;22;45429;-62
2023/02/21 11:46:16;;;;;;;;;22.00;20.75;;;;;18.34;53.02;101377.09;6277712;22;45342;-62
2023/02/21 11:49:05;;;;;;;;;39.00;34.75;;;;;18.38;53.07;101367.19;6278816;22;45217;-62
2023/02/21 11:51:45;;;;;;;;;36.00;32.00;;;;;18.42;53.38;101369.69;6278983;22;45146;-62
2023/02/21 11:54:11;;;;;;;;;33.50;30.75;;;;;18.45;53.42;101364.28;6250607;22;45599;-63
2023/02/21 11:56:51;;;;;;;;;33.50;32.25;;;;;18.48;53.00;101357.97;6250926;22;45234;-62
2023/02/21 11:59:37;;;;;;;;;37.25;32.00;;;;;18.51;53.33;101350.75;6278932;22;45372;-62
2023/02/21 12:02:11;;;;;;;;;30.00;29.00;;;;;18.57;52.96;101348.78;6279436;22;45162;-62
2023/02/21 12:04:43;;;;;;;;;28.50;27.75;;;;;18.61;52.88;101342.41;6278581;22;45305;-63
2023/02/21 12:07:28;;;;;;;;;30.25;29.25;;;;;18.67;52.79;101345.69;6278794;22;45301;-62
2023/02/21 12:10:08;;;;;;;;;25.75;24.00;;;;;18.73;52.83;101336.59;6279116;22;45185;-62
2023/02/21 12:12:56;;;;;;;;;27.75;23.75;;;;;18.81;52.61;101329.16;6279180;22;45150;-62
2023/02/21 12:15:33;;;;;;;;;33.50;29.50;;;;;18.88;52.95;101324.47;6279064;22;45196;-62
2023/02/21 12:18:17;;;;;;;;;29.00;23.50;;;;;18.98;52.57;101315.22;6277952;22;46283;-62
2023/02/21 12:20:48;;;;;;;;;25.75;22.75;;;;;19.11;53.04;101317.41;6278876;22;45475;-64
2023/02/21 12:23:42;;;;;;;;;24.75;20.75;;;;;19.26;52.70;101311.44;6278728;22;45335;-62
2023/02/21 12:26:46;;;;;;;;;24.75;22.50;;;;;19.41;53.13;101307.25;6257095;22;45286;-62
2023/02/21 12:29:14;;;;;;;;;31.25;25.25;;;;;19.60;52.47;101302.00;6278953;22;45329;-62
2023/02/21 12:31:57;;;;;;;;;26.00;22.75;;;;;19.77;52.49;101295.06;6278954;22;45268;-62
2023/02/21 12:34:32;;;;;;;;;25.25;23.00;;;;;19.94;53.08;101283.69;6279040;22;45285;-62
2023/02/21 12:37:15;;;;;;;;;23.75;22.75;;;;;20.12;52.52;101279.31;6278222;22;45633;-62
2023/02/21 12:40:03;;;;;;;;;25.50;21.00;;;;;20.29;53.16;101279.41;6278881;22;45233;-62
2023/02/21 12:42:46;;;;;;;;;23.25;19.50;;;;;20.48;52.32;101273.19;6251037;22;45318;-62
2023/02/21 12:45:23;;;;;;;;;23.75;21.50;;;;;20.66;52.91;101268.78;6278429;22;45281;-62
2023/02/21 12:47:58;;;;;;;;;23.75;22.25;;;;;20.83;52.82;101264.44;6250783;22;45458;-62
2023/02/21 12:50:31;;;;;;;;;24.25;23.25;;;;;20.97;53.09;101247.72;6278227;22;46864;-62
2023/02/21 12:53:02;;;;;;;;;26.00;23.75;;;;;21.15;52.33;101253.97;6277988;22;45244;-62
2023/02/21 12:55:35;;;;;;;;;26.00;23.75;;;;;21.29;52.41;101248.78;6278746;22;45462;-62
2023/02/21 12:58:10;;;;;;;;;24.00;23.00;;;;;21.41;52.42;101239.28;6278341;22;45213;-62
2023/02/21 13:00:53;;;;;;;;;32.00;30.50;;;;;21.54;52.58;101231.47;6278213;22;46264;-62
2023/02/21 13:03:37;;;;;;;;;26.50;25.25;;;;;21.63;52.14;101217.63;6279138;22;45323;-63
2023/02/21 13:06:32;;;;;;;;;28.00;24.75;;;;;21.74;52.29;101222.44;6250878;22;45264;-63
2023/02/21 13:09:11;;;;;;;;;28.75;25.25;;;;;21.83;51.80;101219.25;6276965;22;45291;-63
2023/02/21 13:12:00;;;;;;;;;30.00;25.25;;;;;21.91;52.18;101221.50;6278563;22;45169;-63
2023/02/21 13:14:34;;;;;;;;;37.50;29.75;;;;;21.97;51.71;101215.81;6276571;22;45123;-63
2023/02/21 13:17:00;;;;;;;;;36.25;29.50;;;;;22.04;51.30;101211.00;6250801;22;45126;-63
2023/02/21 13:19:35;;;;;;;;;33.75;29.50;;;;;22.13;51.57;101209.63;6250584;22;45198;-62
2023/02/21 13:25:43;;;;;;;;;24.75;21.75;;;;;22.35;51.30;101202.13;6278637;22;45398;-62
2023/02/21 13:28:17;;;;;;;;;26.50;23.00;;;;;22.43;51.18;101193.69;6278338;22;45357;-63
2023/02/21 13:31:03;;;;;;;;;26.00;23.25;;;;;22.50;50.70;101186.16;6277778;22;45384;-63
2023/02/21 13:33:42;;;;;;;;;31.00;27.25;;;;;22.61;50.93;101188.22;6250532;22;47165;-62
2023/02/21 13:36:37;;;;;;;;;27.00;24.75;;;;;22.72;50.88;101186.66;6277600;22;45233;-62
2023/02/21 13:39:30;;;;;;;;;30.75;28.50;;;;;22.82;50.86;101173.56;6278329;22;45278;-62
2023/02/21 13:42:17;;;;;;;;;30.50;26.25;;;;;22.93;50.77;101181.00;6266394;22;45448;-62
2023/02/21 13:45:18;;;;;;;;;33.00;28.00;;;;;23.04;50.76;101173.19;6277765;22;46233;-62
2023/02/21 13:47:56;;;;;;;;;32.25;29.75;;;;;23.15;50.39;101166.28;6277921;22;45304;-62
2023/02/21 13:50:36;;;;;;;;;27.25;24.75;;;;;23.23;50.84;101164.03;6278707;22;45273;-62
2023/02/21 13:53:07;;;;;;;;;27.75;26.50;;;;;23.29;50.58;101152.94;6277985;22;45207;-62
2023/02/21 13:55:36;;;;;;;;;32.25;29.00;;;;;23.36;50.41;101143.56;6278585;22;45340;-62